Time;durP1;ratioP1;P1;durP2;ratioP2;P2;SDS_P1;SDS_P2;PMS_P1;PMS_P2;Temp;Humidity;BMP_temperature;BMP_pressure;BME280_temperature;BME280_humidity;BME280_pressure;Samples;Min_cycle;Max_cycle;Signal;HPM_P1;HPM_P2
2022/03/01 00:01:54;;;;;;;;;;;;;;;-4.54;59.64;100747.34;5051844;28;20409;-61
2022/03/01 00:04:20;;;;;;;;;;;;;;;-4.57;60.22;100741.44;5063736;28;20019;-63
2022/03/01 00:06:46;;;;;;;;;;;;;;;-4.57;59.81;100735.44;5053117;28;20286;-61
2022/03/01 00:09:11;;;;;;;;;;;;;;;-4.55;59.23;100746.53;5064073;28;19982;-62
2022/03/01 00:11:38;;;;;;;;;;;;;;;-4.55;59.24;100738.75;5050452;28;19932;-61
2022/03/01 00:14:04;;;;;;;;;;;;;;;-4.60;58.78;100738.25;5052075;28;19990;-61
2022/03/01 00:16:30;;;;;;;;;;;;;;;-4.60;59.15;100736.47;5052034;28;20339;-61
2022/03/01 00:18:57;;;;;;;;;;;;;;;-4.65;59.28;100735.97;5050386;28;20012;-61
2022/03/01 00:21:23;;;;;;;;;;;;;;;-4.68;59.53;100736.19;5051854;28;20095;-62
2022/03/01 00:23:48;;;;;;;;;;;;;;;-4.66;59.84;100738.66;5051266;28;20081;-62
2022/03/01 00:26:14;;;;;;;;;;;;;;;-4.67;59.36;100737.84;5051653;28;19928;-61
2022/03/01 00:28:39;;;;;;;;;;;;;;;-4.66;59.99;100733.50;5070051;28;19929;-62
2022/03/01 00:31:05;;;;;;;;;;;;;;;-4.66;59.61;100734.31;5071817;28;20054;-60
2022/03/01 00:33:31;;;;;;;;;;;;;;;-4.64;60.59;100731.63;5071297;28;19929;-60
2022/03/01 00:35:56;;;;;;;;;;;;;;;-4.64;61.14;100732.47;5069709;28;19920;-60
2022/03/01 00:38:21;;;;;;;;;;;;;;;-4.65;60.17;100732.56;5071470;28;20011;-62
2022/03/01 00:40:47;;;;;;;;;;;;;;;-4.66;60.58;100733.50;5071392;28;19924;-61
2022/03/01 00:43:12;;;;;;;;;;;;;;;-4.66;59.66;100736.09;5051875;28;19928;-60
2022/03/01 00:45:38;;;;;;;;;;;;;;;-4.70;60.03;100737.25;5069901;28;20332;-61
2022/03/01 00:48:04;;;;;;;;;;;;;;;-4.72;60.27;100736.50;5071392;28;19975;-60
2022/03/01 00:50:29;;;;;;;;;;;;;;;-4.77;60.13;100730.81;5070064;28;19920;-61
2022/03/01 00:52:55;;;;;;;;;;;;;;;-4.78;60.51;100734.34;5071562;28;19955;-63
2022/03/01 00:55:20;;;;;;;;;;;;;;;-4.84;59.99;100726.06;5071447;28;19924;-63
2022/03/01 00:57:46;;;;;;;;;;;;;;;-4.86;60.84;100724.50;5070064;28;20011;-63
2022/03/01 01:00:13;;;;;;;;;;;;;;;-4.95;61.26;100725.97;5070287;28;19931;-62
2022/03/01 01:02:39;;;;;;;;;;;;;;;-4.94;61.02;100724.22;5067449;28;19959;-62
2022/03/01 01:05:04;;;;;;;;;;;;;;;-4.97;61.39;100721.84;5051115;28;19983;-60
2022/03/01 01:07:30;;;;;;;;;;;;;;;-5.02;61.33;100717.81;5051426;28;19947;-60
2022/03/01 01:09:55;;;;;;;;;;;;;;;-5.04;61.64;100714.50;5051121;28;19936;-61
2022/03/01 01:12:21;;;;;;;;;;;;;;;-5.03;61.19;100723.06;5061978;28;19959;-61
2022/03/01 01:14:47;;;;;;;;;;;;;;;-5.04;61.00;100726.59;5070713;28;19936;-60
2022/03/01 01:17:12;;;;;;;;;;;;;;;-5.02;60.82;100725.56;5071440;28;19932;-62
2022/03/01 01:19:38;;;;;;;;;;;;;;;-5.04;60.49;100719.66;5056109;28;19936;-63
2022/03/01 01:24:48;;;;;;;;;;;;;;;-5.00;60.77;100715.09;5053229;28;19929;-61
2022/03/01 01:27:13;;;;;;;;;;;;;;;-5.00;61.08;100709.94;5053506;28;19925;-60
2022/03/01 01:29:39;;;;;;;;;;;;;;;-4.97;60.40;100716.66;5053302;28;20432;-60
2022/03/01 01:32:05;;;;;;;;;;;;;;;-4.97;60.80;100714.94;5054532;28;19928;-61
2022/03/01 01:34:30;;;;;;;;;;;;;;;-4.99;61.10;100718.53;5054497;28;20322;-62
2022/03/01 01:36:56;;;;;;;;;;;;;;;-4.97;60.48;100717.50;5054300;28;20406;-61
2022/03/01 01:39:21;;;;;;;;;;;;;;;-5.00;60.62;100714.28;5054483;28;19928;-61
2022/03/01 01:41:47;;;;;;;;;;;;;;;-5.02;60.35;100714.41;5054331;28;19986;-61
2022/03/01 01:44:12;;;;;;;;;;;;;;;-4.99;60.29;100711.59;5053167;28;19939;-62
2022/03/01 01:46:38;;;;;;;;;;;;;;;-4.95;59.38;100702.69;5054023;28;20451;-61
2022/03/01 01:49:03;;;;;;;;;;;;;;;-4.94;59.25;100708.69;5019878;28;20361;-62
2022/03/01 01:51:29;;;;;;;;;;;;;;;-4.92;59.09;100712.00;5054324;28;19921;-61
2022/03/01 01:53:54;;;;;;;;;;;;;;;-4.94;59.77;100716.44;5058349;28;20306;-63
2022/03/01 01:56:20;;;;;;;;;;;;;;;-4.95;59.03;100707.88;5056172;28;19946;-62
2022/03/01 01:58:46;;;;;;;;;;;;;;;-4.93;58.79;100710.38;5053433;28;19925;-62
2022/03/01 02:01:14;;;;;;;;;;;;;;;-4.95;58.55;100710.44;5023752;28;19967;-61
2022/03/01 02:03:40;;;;;;;;;;;;;;;-4.96;59.34;100705.41;5074054;28;20394;-62
2022/03/01 02:06:05;;;;;;;;;;;;;;;-4.94;58.86;100704.38;5073931;28;20011;-62
2022/03/01 02:08:31;;;;;;;;;;;;;;;-4.95;59.04;100709.63;5072611;28;20290;-61
2022/03/01 02:10:57;;;;;;;;;;;;;;;-4.99;59.15;100714.19;5073885;28;19924;-61
2022/03/01 02:13:22;;;;;;;;;;;;;;;-4.98;59.52;100704.66;5055876;28;20020;-61
2022/03/01 02:15:48;;;;;;;;;;;;;;;-5.03;60.10;100716.16;5073897;28;20362;-61
2022/03/01 02:18:14;;;;;;;;;;;;;;;-5.04;59.55;100709.31;5072812;28;19975;-62
2022/03/01 02:20:39;;;;;;;;;;;;;;;-5.05;61.17;100714.63;5072456;28;19924;-61
2022/03/01 02:23:05;;;;;;;;;;;;;;;-5.03;60.44;100712.72;5071831;28;20334;-61
2022/03/01 02:25:30;;;;;;;;;;;;;;;-5.07;60.70;100712.13;5073327;28;20069;-61
2022/03/01 02:27:56;;;;;;;;;;;;;;;-5.07;59.95;100713.88;5073160;28;19963;-62
2022/03/01 02:30:21;;;;;;;;;;;;;;;-5.10;59.36;100711.50;5071092;28;19932;-61
2022/03/01 02:32:47;;;;;;;;;;;;;;;-5.04;59.66;100711.09;5073928;28;19928;-63
2022/03/01 02:35:12;;;;;;;;;;;;;;;-5.05;59.28;100709.44;5073359;28;19924;-61
2022/03/01 02:37:38;;;;;;;;;;;;;;;-5.06;58.81;100706.03;5073594;28;20062;-61
2022/03/01 02:40:05;;;;;;;;;;;;;;;-5.00;58.39;100707.34;5073251;28;20027;-62
2022/03/01 02:42:30;;;;;;;;;;;;;;;-4.98;58.91;100704.66;5070167;28;19981;-61
2022/03/01 02:44:56;;;;;;;;;;;;;;;-4.95;58.53;100700.09;5073085;28;20340;-62
2022/03/01 02:47:22;;;;;;;;;;;;;;;-4.91;58.94;100701.56;5073535;28;20335;-62
2022/03/01 02:49:47;;;;;;;;;;;;;;;-4.95;58.39;100705.28;5068996;28;20386;-62
2022/03/01 02:52:13;;;;;;;;;;;;;;;-4.99;58.90;100698.69;5035347;28;19931;-62
2022/03/01 02:54:38;;;;;;;;;;;;;;;-4.94;58.16;100708.69;5053049;28;19982;-61
2022/03/01 02:57:04;;;;;;;;;;;;;;;-4.88;58.21;100708.25;5053305;28;19925;-61
2022/03/01 02:59:30;;;;;;;;;;;;;;;-4.89;58.92;100704.03;5052894;28;19928;-63
2022/03/01 03:01:56;;;;;;;;;;;;;;;-4.90;57.98;100708.38;5053047;28;19944;-61
2022/03/01 03:04:21;;;;;;;;;;;;;;;-4.87;58.41;100709.94;5051634;28;19975;-62
2022/03/01 03:06:47;;;;;;;;;;;;;;;-4.84;57.84;100704.56;5034970;28;19924;-61
2022/03/01 03:09:13;;;;;;;;;;;;;;;-4.81;58.53;100704.34;5052708;28;19929;-63
2022/03/01 03:11:38;;;;;;;;;;;;;;;-4.83;58.50;100704.44;5069617;28;19924;-62
2022/03/01 03:14:04;;;;;;;;;;;;;;;-4.84;58.68;100704.56;5060212;28;19929;-63
2022/03/01 03:16:30;;;;;;;;;;;;;;;-4.88;59.21;100701.34;5035159;28;20023;-61
2022/03/01 03:18:56;;;;;;;;;;;;;;;-4.93;59.49;100700.84;5052725;28;20032;-61
2022/03/01 03:21:21;;;;;;;;;;;;;;;-5.04;58.72;100693.81;5052505;28;19925;-62
2022/03/01 03:23:47;;;;;;;;;;;;;;;-5.04;58.53;100696.38;5052263;28;19928;-62
2022/03/01 03:26:13;;;;;;;;;;;;;;;-5.14;59.59;100697.97;5050846;28;20023;-61
2022/03/01 03:28:38;;;;;;;;;;;;;;;-5.17;59.40;100693.00;5052373;28;20040;-61
2022/03/01 03:31:04;;;;;;;;;;;;;;;-5.15;59.60;100704.03;5052000;28;19927;-62
2022/03/01 03:33:30;;;;;;;;;;;;;;;-5.21;59.70;100701.06;5052165;28;20429;-62
2022/03/01 03:35:56;;;;;;;;;;;;;;;-5.22;59.95;100702.81;5052291;28;20031;-60
2022/03/01 03:38:23;;;;;;;;;;;;;;;-5.19;59.80;100700.03;5052068;28;20548;-61
2022/03/01 03:40:48;;;;;;;;;;;;;;;-5.21;60.07;100703.66;5051937;28;19964;-62
2022/03/01 03:43:14;;;;;;;;;;;;;;;-5.26;59.99;100701.38;5034393;28;20057;-63
2022/03/01 03:45:39;;;;;;;;;;;;;;;-5.31;59.45;100700.84;5050696;28;19933;-61
2022/03/01 03:48:05;;;;;;;;;;;;;;;-5.29;59.49;100704.19;5050920;28;19940;-61
2022/03/01 03:50:30;;;;;;;;;;;;;;;-5.28;59.56;100703.25;5034172;28;20434;-62
2022/03/01 03:52:56;;;;;;;;;;;;;;;-5.25;59.13;100701.25;5053054;28;20023;-61
2022/03/01 03:55:21;;;;;;;;;;;;;;;-5.22;59.46;100699.41;5052074;28;19924;-62
2022/03/01 03:57:47;;;;;;;;;;;;;;;-5.19;59.09;100697.44;5033971;28;20358;-62
2022/03/01 04:00:16;;;;;;;;;;;;;;;-5.16;59.46;100692.06;5051781;28;20478;-61
2022/03/01 04:02:43;;;;;;;;;;;;;;;-5.12;58.54;100695.25;5067862;28;19990;-61
2022/03/01 04:05:09;;;;;;;;;;;;;;;-5.13;59.01;100698.78;5071508;28;20385;-62
2022/03/01 04:07:35;;;;;;;;;;;;;;;-5.11;58.78;100696.94;5070340;28;19924;-61
2022/03/01 04:10:00;;;;;;;;;;;;;;;-5.10;58.27;100693.41;5071675;28;20405;-62
2022/03/01 04:12:26;;;;;;;;;;;;;;;-5.13;58.41;100691.03;5070364;28;19924;-61
2022/03/01 04:14:51;;;;;;;;;;;;;;;-5.13;58.08;100693.63;5050651;28;19932;-62
2022/03/01 04:17:17;;;;;;;;;;;;;;;-5.11;57.87;100691.75;5052089;28;20437;-62
2022/03/01 04:19:42;;;;;;;;;;;;;;;-5.10;57.75;100690.81;5051569;28;19975;-61
2022/03/01 04:22:08;;;;;;;;;;;;;;;-5.15;57.89;100687.72;5052040;28;19927;-62
2022/03/01 04:24:33;;;;;;;;;;;;;;;-5.12;58.00;100692.69;5051195;28;20358;-62
2022/03/01 04:26:59;;;;;;;;;;;;;;;-5.15;58.68;100685.13;5050180;28;20019;-61
2022/03/01 04:29:24;;;;;;;;;;;;;;;-5.14;58.78;100691.97;5050207;28;19940;-62
2022/03/01 04:31:50;;;;;;;;;;;;;;;-5.14;59.23;100697.16;5051494;28;19947;-61
2022/03/01 04:34:16;;;;;;;;;;;;;;;-5.15;59.18;100698.06;5046407;28;20331;-61
2022/03/01 04:36:41;;;;;;;;;;;;;;;-5.15;59.38;100700.63;5071701;28;20042;-63
2022/03/01 04:39:07;;;;;;;;;;;;;;;-5.17;59.72;100697.34;5070385;28;19928;-63
2022/03/01 04:41:32;;;;;;;;;;;;;;;-5.17;59.25;100700.75;5069902;28;19928;-65
2022/03/01 04:43:58;;;;;;;;;;;;;;;-5.22;59.16;100696.81;5069955;28;20035;-62
2022/03/01 04:46:23;;;;;;;;;;;;;;;-5.30;59.74;100705.09;5064436;28;19924;-64
2022/03/01 04:48:49;;;;;;;;;;;;;;;-5.21;59.59;100701.88;5046435;28;20398;-64
2022/03/01 04:51:21;;;;;;;;;;;;;;;-5.18;59.46;100698.25;5066340;28;19932;-63
2022/03/01 04:53:47;;;;;;;;;;;;;;;-5.16;59.74;100696.41;5065923;28;20019;-62
2022/03/01 04:56:13;;;;;;;;;;;;;;;-5.12;59.60;100701.25;5073655;28;19928;-62
2022/03/01 04:58:38;;;;;;;;;;;;;;;-5.10;59.29;100698.56;5074800;28;19942;-64
2022/03/01 05:01:04;;;;;;;;;;;;;;;-5.05;59.53;100702.50;5073202;28;19920;-63
2022/03/01 05:03:29;;;;;;;;;;;;;;;-5.05;58.92;100710.25;5073154;28;20024;-65
2022/03/01 05:05:55;;;;;;;;;;;;;;;-5.03;59.46;100711.00;5073169;28;20386;-63
2022/03/01 05:08:20;;;;;;;;;;;;;;;-5.00;58.99;100709.13;5073348;28;19932;-64
2022/03/01 05:10:46;;;;;;;;;;;;;;;-4.95;58.81;100710.44;5074568;28;20397;-61
2022/03/01 05:13:11;;;;;;;;;;;;;;;-4.92;59.28;100710.25;5054189;28;19929;-65
2022/03/01 05:15:37;;;;;;;;;;;;;;;-4.84;59.31;100705.38;5073152;28;20022;-63
2022/03/01 05:18:02;;;;;;;;;;;;;;;-4.82;58.84;100711.28;5072777;28;19928;-62
2022/03/01 05:20:28;;;;;;;;;;;;;;;-4.77;58.59;100704.94;5070961;28;19928;-59
2022/03/01 05:22:56;;;;;;;;;;;;;;;-4.75;58.52;100706.50;5069054;28;20332;-60
2022/03/01 05:25:25;;;;;;;;;;;;;;;-4.72;58.16;100714.03;5018066;28;20480;-61
2022/03/01 05:27:51;;;;;;;;;;;;;;;-4.63;58.37;100710.00;5069970;28;19928;-59
2022/03/01 05:30:17;;;;;;;;;;;;;;;-4.66;58.35;100705.84;5070078;28;20047;-60
2022/03/01 05:32:44;;;;;;;;;;;;;;;-4.60;58.44;100699.44;5067542;28;20031;-62
2022/03/01 05:35:10;;;;;;;;;;;;;;;-4.51;57.90;100706.53;5052001;28;19951;-62
2022/03/01 05:37:36;;;;;;;;;;;;;;;-4.46;58.14;100707.06;5050797;28;20244;-62
2022/03/01 05:40:02;;;;;;;;;;;;;;;-4.41;57.67;100699.78;5051880;28;19990;-62
2022/03/01 05:42:28;;;;;;;;;;;;;;;-4.31;58.01;100705.13;5051948;28;20183;-61
2022/03/01 05:44:55;;;;;;;;;;;;;;;-4.21;57.67;100706.13;5048514;28;20421;-62
2022/03/01 05:47:21;;;;;;;;;;;;;;;-4.12;57.01;100715.00;5032351;28;20014;-63
2022/03/01 05:49:46;;;;;;;;;;;;;;;-4.00;57.50;100711.53;5051515;28;19964;-62
2022/03/01 05:52:12;;;;;;;;;;;;;;;-3.93;56.56;100711.91;5065853;28;20390;-62
2022/03/01 05:54:37;;;;;;;;;;;;;;;-3.89;56.80;100711.56;5064487;28;19929;-61
2022/03/01 05:57:03;;;;;;;;;;;;;;;-3.80;56.77;100704.06;5069638;28;19931;-62
2022/03/01 05:59:28;;;;;;;;;;;;;;;-3.74;56.44;100701.84;5068110;28;20405;-62
2022/03/01 06:01:54;;;;;;;;;;;;;;;-3.68;56.13;100701.41;5067797;28;20294;-62
2022/03/01 06:04:19;;;;;;;;;;;;;;;-3.56;55.18;100704.88;5070049;28;20306;-62
2022/03/01 06:06:45;;;;;;;;;;;;;;;-3.49;54.88;100703.47;5054799;28;20031;-62
2022/03/01 06:09:10;;;;;;;;;;;;;;;-3.35;55.00;100704.19;5051531;28;19929;-64
2022/03/01 06:11:36;;;;;;;;;;;;;;;-3.30;54.42;100704.66;5050823;28;19939;-61
2022/03/01 06:14:02;;;;;;;;;;;;;;;-3.33;53.86;100694.53;5049683;28;19929;-62
2022/03/01 06:16:28;;;;;;;;;;;;;;;-3.25;54.24;100707.75;5051719;28;20375;-62
2022/03/01 06:18:53;;;;;;;;;;;;;;;-3.18;53.64;100701.13;5072663;28;19943;-62
2022/03/01 06:21:19;;;;;;;;;;;;;;;-3.11;54.51;100702.34;5068565;28;19959;-61
2022/03/01 06:23:45;;;;;;;;;;;;;;;-3.05;54.65;100707.06;5063663;28;19933;-62
2022/03/01 06:26:11;;;;;;;;;;;;;;;-3.03;54.09;100709.53;5070702;28;19930;-63
2022/03/01 06:28:36;;;;;;;;;;;;;;;-3.02;54.01;100711.19;5069943;28;20011;-61
2022/03/01 06:31:02;;;;;;;;;;;;;;;-3.00;54.67;100710.13;5066729;28;19924;-61
2022/03/01 06:33:27;;;;;;;;;;;;;;;-3.05;54.46;100699.28;5048052;28;19929;-62
2022/03/01 06:35:53;;;;;;;;;;;;;;;-2.87;54.38;100701.41;5049752;28;19925;-62
2022/03/01 06:38:19;;;;;;;;;;;;;;;-2.75;54.32;100711.66;5050789;28;19929;-61
2022/03/01 06:40:44;;;;;;;;;;;;;;;-2.81;54.17;100714.72;5050651;28;19979;-62
2022/03/01 06:43:10;;;;;;;;;;;;;;;-2.70;53.56;100715.69;5051304;28;20233;-64
2022/03/01 06:45:35;;;;;;;;;;;;;;;-2.58;53.60;100712.94;5049402;28;19929;-62
2022/03/01 06:48:01;;;;;;;;;;;;;;;-2.44;52.98;100718.81;5050545;28;20426;-61
2022/03/01 06:50:26;;;;;;;;;;;;;;;-2.37;52.77;100720.00;5051838;28;19927;-60
2022/03/01 06:52:52;;;;;;;;;;;;;;;-2.39;52.92;100724.47;5058775;28;19928;-63
2022/03/01 06:55:19;;;;;;;;;;;;;;;-2.24;52.95;100722.44;5068494;28;20381;-61
2022/03/01 06:57:44;;;;;;;;;;;;;;;-2.11;52.18;100721.34;5067275;28;19940;-61
2022/03/01 07:00:10;;;;;;;;;;;;;;;-2.12;52.63;100724.06;5065678;28;19929;-61
2022/03/01 07:02:38;;;;;;;;;;;;;;;-2.00;52.28;100722.25;5068371;28;19925;-61
2022/03/01 07:05:11;;;;;;;;;;;;;;;-1.98;52.28;100712.56;5066355;28;19974;-62
2022/03/01 07:07:36;;;;;;;;;;;;;;;-1.91;51.92;100724.94;5062220;28;19924;-60
2022/03/01 07:10:03;;;;;;;;;;;;;;;-1.73;51.83;100719.22;5049301;28;19935;-63
2022/03/01 07:12:28;;;;;;;;;;;;;;;-1.67;51.83;100722.13;5049843;28;19924;-62
2022/03/01 07:14:54;;;;;;;;;;;;;;;-1.64;51.84;100723.66;5030752;28;19935;-63
2022/03/01 07:17:20;;;;;;;;;;;;;;;-1.61;51.65;100713.81;5050020;28;19952;-60
2022/03/01 07:19:46;;;;;;;;;;;;;;;-1.50;51.92;100712.94;5047748;28;20556;-62
2022/03/01 07:22:11;;;;;;;;;;;;;;;-1.41;51.46;100717.38;5046505;28;20023;-62
2022/03/01 07:24:37;;;;;;;;;;;;;;;-1.38;51.60;100717.13;5050001;28;20015;-63
2022/03/01 07:27:03;;;;;;;;;;;;;;;-1.30;51.31;100718.25;5045661;28;19960;-60
2022/03/01 07:29:30;;;;;;;;;;;;;;;-1.22;50.92;100708.03;5046494;28;19929;-60
2022/03/01 07:31:56;;;;;;;;;;;;;;;-1.09;50.76;100719.06;5048450;28;19929;-60
2022/03/01 07:34:24;;;;;;;;;;;;;;;-0.96;50.47;100724.06;5045662;28;19936;-60
2022/03/01 07:36:49;;;;;;;;;;;;;;;-0.79;50.03;100714.81;5045393;28;20302;-61
2022/03/01 07:39:15;;;;;;;;;;;;;;;-0.65;49.31;100718.81;5058034;28;19940;-60
2022/03/01 07:41:40;;;;;;;;;;;;;;;-0.58;49.16;100728.59;5053778;28;19939;-63
2022/03/01 07:44:06;;;;;;;;;;;;;;;-0.50;48.85;100723.56;5046512;28;19929;-64
2022/03/01 07:46:31;;;;;;;;;;;;;;;-0.50;48.48;100720.09;5047970;28;20020;-62
2022/03/01 07:48:57;;;;;;;;;;;;;;;-0.36;48.15;100719.72;5047817;28;19936;-62
2022/03/01 07:51:22;;;;;;;;;;;;;;;-0.37;48.47;100719.88;5045970;28;19925;-60
2022/03/01 07:53:48;;;;;;;;;;;;;;;-0.36;48.48;100716.31;5047111;28;20579;-62
2022/03/01 07:56:14;;;;;;;;;;;;;;;-0.21;47.74;100717.56;5047843;28;19975;-62
2022/03/01 07:58:39;;;;;;;;;;;;;;;-0.17;48.30;100716.34;5048599;28;19985;-64
2022/03/01 08:01:05;;;;;;;;;;;;;;;-0.10;47.70;100712.22;5049200;28;19929;-63
2022/03/01 08:03:30;;;;;;;;;;;;;;;0.04;47.31;100718.03;5066212;28;19960;-63
2022/03/01 08:05:57;;;;;;;;;;;;;;;0.10;46.41;100715.69;5058741;28;20427;-64
2022/03/01 08:08:23;;;;;;;;;;;;;;;0.25;45.81;100718.69;5047582;28;19951;-62
2022/03/01 08:10:49;;;;;;;;;;;;;;;0.36;44.53;100717.75;5047292;28;19925;-62
2022/03/01 08:13:16;;;;;;;;;;;;;;;0.41;45.20;100718.97;5047674;28;19928;-63
2022/03/01 08:15:42;;;;;;;;;;;;;;;0.55;44.99;100709.06;5029655;28;19925;-62
2022/03/01 08:18:07;;;;;;;;;;;;;;;0.59;45.19;100719.09;5048376;28;20365;-61
2022/03/01 08:20:33;;;;;;;;;;;;;;;0.61;45.09;100714.53;5045593;28;19928;-61
2022/03/01 08:22:58;;;;;;;;;;;;;;;0.67;44.48;100716.59;5046161;28;19971;-61
2022/03/01 08:25:24;;;;;;;;;;;;;;;0.82;44.08;100710.91;5045083;28;19932;-62
2022/03/01 08:27:49;;;;;;;;;;;;;;;0.90;43.80;100714.47;5060452;28;19935;-63
2022/03/01 08:30:16;;;;;;;;;;;;;;;0.97;43.25;100706.06;5050117;28;20429;-60
2022/03/01 08:32:42;;;;;;;;;;;;;;;1.05;43.50;100709.63;5051100;28;19925;-63
2022/03/01 08:35:08;;;;;;;;;;;;;;;1.12;42.29;100713.31;5049988;28;20378;-61
2022/03/01 08:37:34;;;;;;;;;;;;;;;1.14;42.18;100711.34;5034611;28;20361;-63
2022/03/01 08:39:59;;;;;;;;;;;;;;;1.18;42.62;100700.63;5051597;28;20055;-62
2022/03/01 08:42:25;;;;;;;;;;;;;;;1.25;42.09;100710.38;5050438;28;20407;-62
2022/03/01 08:44:50;;;;;;;;;;;;;;;1.37;42.58;100708.38;5053625;28;20011;-62
2022/03/01 08:47:16;;;;;;;;;;;;;;;1.47;42.53;100709.16;5050763;28;19972;-62
2022/03/01 08:49:42;;;;;;;;;;;;;;;1.49;42.36;100703.78;5052165;28;19928;-62
2022/03/01 08:52:07;;;;;;;;;;;;;;;1.60;41.98;100706.19;5053434;28;19971;-62
2022/03/01 08:54:33;;;;;;;;;;;;;;;1.64;42.17;100704.94;5051693;28;19928;-64
2022/03/01 08:56:58;;;;;;;;;;;;;;;1.64;41.99;100709.34;5049488;28;20374;-62
2022/03/01 08:59:25;;;;;;;;;;;;;;;1.70;41.83;100708.75;5034238;28;19964;-62
2022/03/01 09:01:50;;;;;;;;;;;;;;;1.81;41.88;100705.94;5051837;28;19924;-61
2022/03/01 09:04:16;;;;;;;;;;;;;;;1.82;41.36;100697.09;5052714;28;19935;-61
2022/03/01 09:06:42;;;;;;;;;;;;;;;1.84;41.33;100703.03;5051094;28;19973;-61
2022/03/01 09:09:07;;;;;;;;;;;;;;;1.91;40.93;100695.38;5051441;28;19928;-64
2022/03/01 09:11:33;;;;;;;;;;;;;;;1.96;40.69;100693.16;5048304;28;19934;-61
2022/03/01 09:13:59;;;;;;;;;;;;;;;1.97;41.12;100686.94;5051380;28;19936;-63
2022/03/01 09:16:24;;;;;;;;;;;;;;;1.99;40.69;100693.69;5051602;28;19932;-61
2022/03/01 09:18:50;;;;;;;;;;;;;;;2.06;40.81;100691.31;5050697;28;19928;-61
2022/03/01 09:21:15;;;;;;;;;;;;;;;2.14;40.67;100685.31;5049736;28;19924;-61
2022/03/01 09:23:41;;;;;;;;;;;;;;;2.18;39.84;100684.06;5052651;28;19945;-60
2022/03/01 09:26:07;;;;;;;;;;;;;;;2.22;40.26;100673.13;5049233;28;19970;-63
2022/03/01 09:28:32;;;;;;;;;;;;;;;2.30;39.77;100671.56;5051926;28;19935;-59
2022/03/01 09:30:58;;;;;;;;;;;;;;;2.32;40.21;100673.03;5033155;28;19975;-61
2022/03/01 09:33:23;;;;;;;;;;;;;;;2.41;39.81;100672.13;5084404;28;19929;-61
2022/03/01 09:35:49;;;;;;;;;;;;;;;2.40;39.04;100677.50;5080881;28;19920;-61
2022/03/01 09:38:15;;;;;;;;;;;;;;;2.41;39.28;100673.91;5048841;28;19929;-60
2022/03/01 09:40:40;;;;;;;;;;;;;;;2.46;39.15;100667.25;5046564;28;19978;-60
2022/03/01 09:43:07;;;;;;;;;;;;;;;2.53;38.96;100670.09;5049418;28;19990;-59
2022/03/01 09:45:34;;;;;;;;;;;;;;;2.59;38.69;100663.38;5033100;28;19932;-62
2022/03/01 09:48:00;;;;;;;;;;;;;;;2.69;38.25;100662.31;5049643;28;20311;-62
2022/03/01 09:50:29;;;;;;;;;;;;;;;2.80;37.99;100669.09;5049916;28;19931;-61
2022/03/01 09:52:56;;;;;;;;;;;;;;;2.83;38.03;100655.69;5050622;28;19982;-62
2022/03/01 09:55:21;;;;;;;;;;;;;;;2.79;38.31;100659.59;5046744;28;20060;-61
2022/03/01 09:57:47;;;;;;;;;;;;;;;2.87;37.56;100653.56;5047254;28;20035;-61
2022/03/01 10:00:13;;;;;;;;;;;;;;;3.01;36.84;100652.19;5031856;28;20309;-62
2022/03/01 10:02:39;;;;;;;;;;;;;;;3.01;37.14;100649.56;5048905;28;19925;-62
2022/03/01 10:05:05;;;;;;;;;;;;;;;3.05;36.98;100650.88;5082063;28;19932;-60
2022/03/01 10:07:31;;;;;;;;;;;;;;;3.06;36.64;100644.66;5082165;28;19925;-62
2022/03/01 10:10:03;;;;;;;;;;;;;;;3.07;36.21;100648.94;5067590;28;20690;-61
2022/03/01 10:12:29;;;;;;;;;;;;;;;3.08;36.21;100647.94;5049624;28;20404;-63
2022/03/01 10:14:59;;;;;;;;;;;;;;;3.08;36.20;100640.09;5047957;28;20364;-62
2022/03/01 10:17:34;;;;;;;;;;;;;;;3.15;36.08;100639.31;5047246;28;20366;-62
2022/03/01 10:20:01;;;;;;;;;;;;;;;3.21;35.91;100632.63;5045138;28;20017;-63
2022/03/01 10:22:26;;;;;;;;;;;;;;;3.24;35.76;100640.16;5048991;28;20380;-62
2022/03/01 10:24:52;;;;;;;;;;;;;;;3.34;35.48;100635.59;5048157;28;20046;-62
2022/03/01 10:27:26;;;;;;;;;;;;;;;3.39;35.41;100635.94;5049356;28;19925;-62
2022/03/01 10:29:52;;;;;;;;;;;;;;;3.34;35.20;100630.34;5049293;28;19929;-62
2022/03/01 10:32:17;;;;;;;;;;;;;;;3.34;35.54;100624.28;5049879;28;20425;-62
2022/03/01 10:34:55;;;;;;;;;;;;;;;3.37;35.39;100630.03;5050081;28;19929;-62
2022/03/01 10:37:29;;;;;;;;;;;;;;;3.50;35.42;100624.34;5047917;28;19925;-62
2022/03/01 10:40:10;;;;;;;;;;;;;;;3.57;35.26;100620.06;5080497;28;20066;-62
2022/03/01 10:42:35;;;;;;;;;;;;;;;3.54;34.81;100623.03;5048445;28;19929;-62
2022/03/01 10:45:00;;;;;;;;;;;;;;;3.45;34.68;100621.38;5047377;28;20405;-61
2022/03/01 10:47:28;;;;;;;;;;;;;;;3.49;34.70;100630.53;5047280;28;19977;-63
2022/03/01 10:50:01;;;;;;;;;;;;;;;3.50;34.59;100624.34;5048559;28;19936;-62
2022/03/01 10:52:32;;;;;;;;;;;;;;;3.56;34.81;100620.22;5049253;28;19925;-61
2022/03/01 10:54:57;;;;;;;;;;;;;;;3.56;35.16;100621.06;5047434;28;20560;-62
2022/03/01 10:57:23;;;;;;;;;;;;;;;3.55;34.61;100615.97;5050371;28;19932;-62
2022/03/01 10:59:49;;;;;;;;;;;;;;;3.53;34.30;100618.78;5048305;28;19948;-61
2022/03/01 11:02:17;;;;;;;;;;;;;;;3.60;34.61;100622.38;5049164;28;20391;-62
2022/03/01 11:04:43;;;;;;;;;;;;;;;3.64;34.76;100617.63;5048007;28;19928;-61
2022/03/01 11:07:10;;;;;;;;;;;;;;;3.64;33.90;100613.19;5049645;28;19925;-61
2022/03/01 11:09:35;;;;;;;;;;;;;;;3.64;33.97;100612.38;5049764;28;20046;-61
2022/03/01 11:12:01;;;;;;;;;;;;;;;3.77;33.71;100602.25;5050405;28;20019;-61
2022/03/01 11:14:27;;;;;;;;;;;;;;;3.80;33.95;100604.53;5049332;28;20318;-61
2022/03/01 11:17:05;;;;;;;;;;;;;;;3.81;33.75;100606.16;5049097;28;19924;-59
2022/03/01 11:19:50;;;;;;;;;;;;;;;3.77;33.54;100607.50;5050204;28;20406;-61
2022/03/01 11:22:26;;;;;;;;;;;;;;;3.81;33.52;100605.34;5042316;28;20283;-61
2022/03/01 11:24:52;;;;;;;;;;;;;;;3.81;33.07;100597.47;5050176;28;19960;-60
2022/03/01 11:27:18;;;;;;;;;;;;;;;3.83;33.46;100598.97;5032001;28;19982;-61
2022/03/01 11:29:44;;;;;;;;;;;;;;;3.81;32.67;100597.47;5049477;28;19936;-62
2022/03/01 11:32:14;;;;;;;;;;;;;;;3.81;32.94;100597.47;5049956;28;19925;-61
2022/03/01 11:34:39;;;;;;;;;;;;;;;3.76;32.79;100600.59;5031440;28;19981;-62
2022/03/01 11:37:11;;;;;;;;;;;;;;;3.86;32.96;100593.38;5058851;28;19932;-62
2022/03/01 11:39:37;;;;;;;;;;;;;;;3.92;33.18;100593.72;5046482;28;19928;-65
2022/03/01 11:42:06;;;;;;;;;;;;;;;3.87;32.69;100581.91;5045722;28;19948;-64
2022/03/01 11:44:36;;;;;;;;;;;;;;;3.91;32.77;100579.75;5048034;28;20318;-62
2022/03/01 11:47:03;;;;;;;;;;;;;;;3.87;32.28;100586.34;5063956;28;19978;-63
2022/03/01 11:49:32;;;;;;;;;;;;;;;3.86;32.89;100582.91;5047445;28;19935;-63
2022/03/01 11:51:59;;;;;;;;;;;;;;;3.89;32.96;100581.75;5046293;28;19932;-61
2022/03/01 11:54:28;;;;;;;;;;;;;;;3.89;33.09;100573.88;5048813;28;20410;-60
2022/03/01 11:56:55;;;;;;;;;;;;;;;3.97;32.92;100576.50;5080706;28;20251;-61
2022/03/01 11:59:21;;;;;;;;;;;;;;;3.97;32.54;100575.66;5048522;28;20349;-62
2022/03/01 12:01:46;;;;;;;;;;;;;;;3.99;32.84;100569.28;5080809;28;19925;-61
2022/03/01 12:04:12;;;;;;;;;;;;;;;3.96;32.43;100566.97;5047996;28;19952;-62
2022/03/01 12:06:38;;;;;;;;;;;;;;;3.92;32.65;100567.50;5049266;28;19948;-61
2022/03/01 12:09:05;;;;;;;;;;;;;;;3.97;33.04;100562.53;5048631;28;20440;-61
2022/03/01 12:11:48;;;;;;;;;;;;;;;3.98;32.92;100556.34;5048370;28;20400;-61
2022/03/01 12:14:18;;;;;;;;;;;;;;;3.99;32.80;100556.16;5049958;28;19929;-61
2022/03/01 12:16:43;;;;;;;;;;;;;;;3.92;32.25;100554.38;5056707;28;20023;-63
2022/03/01 12:19:10;;;;;;;;;;;;;;;4.00;32.45;100559.59;5068547;28;20066;-62
2022/03/01 12:21:36;;;;;;;;;;;;;;;4.01;32.68;100556.00;5065895;28;20330;-62
2022/03/01 12:24:02;;;;;;;;;;;;;;;4.01;33.11;100553.38;5049963;28;19929;-63
2022/03/01 12:26:28;;;;;;;;;;;;;;;3.97;32.38;100549.44;5047515;28;19947;-63
2022/03/01 12:28:56;;;;;;;;;;;;;;;3.92;33.09;100544.69;5047158;28;19936;-66
2022/03/01 12:31:25;;;;;;;;;;;;;;;3.89;32.79;100541.59;5029744;28;20321;-64
2022/03/01 12:33:50;;;;;;;;;;;;;;;3.87;33.15;100554.84;5046542;28;19939;-66
2022/03/01 12:36:36;;;;;;;;;;;;;;;3.92;32.57;100551.75;5046760;28;19924;-64
2022/03/01 12:39:01;;;;;;;;;;;;;;;3.88;33.24;100551.25;5046919;28;20577;-64